Anderson, Nebraska
Current Conditions -  °F | °C
As of 4:15 PM on Wednesday 28 Jan 2015 (Local Time) from KHDE Reporting Station
Clear Clear  
Wind Chill: 19°   Ceiling: Unl
Heat Index: 19°   Visibility: 10mi
Dew Point: -1°   Wind: 22mph
Humidity: 27%   Direction: 310°NW
Pressure: 29.79"   Gusts: 31mph
Location:  40.5251°N, 99.2414°W
Report Text: KHDE 282215Z AUTO 31019G27KT 10SM CLR 19/00 A2979 RMK AO2 T01911005
Loading
Personal Weather Stations






























Interactive Weather Map New forecast layout! Learn more

10-Day Weather Forecast

Advertisements
Track Severe Weather on mobile